createdAt,value
2022-10-18T00:01:32.596Z,9.30
2022-10-18T00:04:00.140Z,8.20
2022-10-18T00:06:27.599Z,8.20
2022-10-18T00:08:55.498Z,10.20
2022-10-18T00:11:22.950Z,8.30
2022-10-18T00:13:50.560Z,9.50
2022-10-18T00:16:18.809Z,8.30
2022-10-18T00:18:47.996Z,8.30
2022-10-18T00:21:18.795Z,8.30
2022-10-18T00:23:47.634Z,8.90
2022-10-18T00:26:17.873Z,8.80
2022-10-18T00:28:46.603Z,8.30
2022-10-18T00:31:25.932Z,8.40
2022-10-18T00:33:56.550Z,8.30
2022-10-18T00:36:25.178Z,8.40
2022-10-18T00:38:53.261Z,9.20
2022-10-18T00:41:26.129Z,8.30
2022-10-18T00:44:02.237Z,8.30
2022-10-18T00:46:41.244Z,8.30
2022-10-18T00:49:13.380Z,8.30
2022-10-18T00:51:46.174Z,8.80
2022-10-18T00:54:16.042Z,8.70
2022-10-18T00:56:44.889Z,8.80
2022-10-18T00:59:15.013Z,8.30
2022-10-18T01:01:42.708Z,9.00
2022-10-18T01:04:10.626Z,8.20
2022-10-18T01:06:48.558Z,9.70
2022-10-18T01:09:29.878Z,8.20
2022-10-18T01:12:20.030Z,8.20
2022-10-18T01:15:10.701Z,8.20
2022-10-18T01:17:46.831Z,8.10
2022-10-18T01:20:38.971Z,8.10
2022-10-18T01:23:17.745Z,8.10
2022-10-18T01:26:00.180Z,8.20
2022-10-18T01:28:42.633Z,8.00
2022-10-18T01:31:23.851Z,9.30
2022-10-18T01:33:59.940Z,8.00
2022-10-18T01:36:37.823Z,9.60
2022-10-18T01:39:11.010Z,7.90
2022-10-18T01:41:41.307Z,7.80
2022-10-18T01:44:14.583Z,7.80
2022-10-18T01:46:43.972Z,8.10
2022-10-18T01:49:11.422Z,7.80
2022-10-18T01:51:38.980Z,7.80
2022-10-18T01:54:06.487Z,7.70
2022-10-18T01:56:58.178Z,7.70
2022-10-18T01:59:51.863Z,7.60
2022-10-18T02:02:35.173Z,7.60
2022-10-18T02:05:14.902Z,7.60
2022-10-18T02:08:00.208Z,7.60
2022-10-18T02:10:49.607Z,7.60
2022-10-18T02:13:21.047Z,7.50
2022-10-18T02:15:55.088Z,7.50
2022-10-18T02:18:29.284Z,7.40
2022-10-18T02:20:58.013Z,8.40
2022-10-18T02:23:26.444Z,7.10
2022-10-18T02:25:54.719Z,7.30
2022-10-18T02:28:22.229Z,7.30
2022-10-18T02:31:01.831Z,7.30
2022-10-18T02:33:41.374Z,7.30
2022-10-18T02:36:32.990Z,7.20
2022-10-18T02:39:07.637Z,7.30
2022-10-18T02:41:35.340Z,7.20
2022-10-18T02:44:02.823Z,7.20
2022-10-18T02:46:30.308Z,7.30
2022-10-18T02:48:57.793Z,7.50
2022-10-18T02:51:25.471Z,7.20
2022-10-18T02:53:53.015Z,7.60
2022-10-18T02:56:20.488Z,7.80
2022-10-18T02:58:48.105Z,7.20
2022-10-18T03:01:15.584Z,7.30
2022-10-18T03:03:43.168Z,8.50
2022-10-18T03:06:10.738Z,8.10
2022-10-18T03:08:38.432Z,8.00
2022-10-18T03:11:06.158Z,7.40
2022-10-18T03:13:34.357Z,7.90
2022-10-18T03:16:02.274Z,7.20
2022-10-18T03:18:29.874Z,7.20
2022-10-18T03:20:57.329Z,8.50
2022-10-18T03:23:24.922Z,7.20
2022-10-18T03:25:52.367Z,7.10
2022-10-18T03:28:19.907Z,7.10
2022-10-18T03:30:47.395Z,7.10
2022-10-18T03:33:15.008Z,7.00
2022-10-18T03:35:42.490Z,7.10
2022-10-18T03:38:10.005Z,7.10
2022-10-18T03:40:38.111Z,7.00
2022-10-18T03:43:05.515Z,6.90
2022-10-18T03:45:32.892Z,6.90
2022-10-18T03:48:00.311Z,6.80
2022-10-18T03:50:27.740Z,6.80
2022-10-18T03:52:55.877Z,8.60
2022-10-18T03:55:23.321Z,6.90
2022-10-18T03:57:50.936Z,6.80
2022-10-18T04:00:18.483Z,6.70
2022-10-18T04:02:46.336Z,6.70
2022-10-18T04:05:14.293Z,6.70
2022-10-18T04:07:41.761Z,6.80
2022-10-18T04:10:09.497Z,6.70
2022-10-18T04:12:37.090Z,6.70
2022-10-18T04:15:05.480Z,8.80
2022-10-18T04:17:33.233Z,6.70
2022-10-18T04:20:00.883Z,7.90
2022-10-18T04:22:28.358Z,6.60
2022-10-18T04:24:56.869Z,6.50
2022-10-18T04:27:24.700Z,6.50
2022-10-18T04:29:52.134Z,6.50
2022-10-18T04:32:19.579Z,6.50
2022-10-18T04:34:47.021Z,6.50
2022-10-18T04:37:14.437Z,6.50
2022-10-18T04:39:49.815Z,6.60
2022-10-18T04:42:20.482Z,6.50
2022-10-18T04:44:48.088Z,6.50
2022-10-18T04:47:16.521Z,6.50
2022-10-18T04:49:44.093Z,6.40
2022-10-18T04:52:11.980Z,6.50
2022-10-18T04:54:39.431Z,6.40
2022-10-18T04:57:06.904Z,6.40
2022-10-18T04:59:34.355Z,6.40
2022-10-18T05:04:29.529Z,6.40
2022-10-18T05:06:56.946Z,6.30
2022-10-18T05:09:24.878Z,6.30
2022-10-18T05:11:52.533Z,6.30
2022-10-18T05:14:20.076Z,6.30
2022-10-18T05:16:47.510Z,6.30
2022-10-18T05:19:15.063Z,6.30
2022-10-18T05:21:42.618Z,6.30
2022-10-18T05:24:12.028Z,6.40
2022-10-18T05:26:39.477Z,6.30
2022-10-18T05:29:07.026Z,7.40
2022-10-18T05:31:34.542Z,6.30
2022-10-18T05:34:02.237Z,6.60
2022-10-18T05:36:30.042Z,6.30
2022-10-18T05:39:00.971Z,6.30
2022-10-18T05:41:31.792Z,6.30
2022-10-18T05:44:02.915Z,6.80
2022-10-18T05:46:30.624Z,6.30
2022-10-18T05:48:58.114Z,6.20
2022-10-18T05:51:25.579Z,6.20
2022-10-18T05:53:54.696Z,8.20
2022-10-18T05:56:22.291Z,6.20
2022-10-18T05:58:51.681Z,7.80
2022-10-18T06:01:19.709Z,6.20
2022-10-18T06:03:47.597Z,6.20
2022-10-18T06:06:15.595Z,6.10
2022-10-18T06:08:44.194Z,6.10
2022-10-18T06:11:16.998Z,6.10
2022-10-18T06:13:47.012Z,6.10
2022-10-18T06:16:16.538Z,6.10
2022-10-18T06:18:47.248Z,7.80
2022-10-18T06:21:14.673Z,6.10
2022-10-18T06:23:42.197Z,6.90
2022-10-18T06:26:11.390Z,6.00
2022-10-18T06:28:39.283Z,6.00
2022-10-18T06:31:06.996Z,6.00
2022-10-18T06:33:36.465Z,6.00
2022-10-18T06:36:22.513Z,6.00
2022-10-18T06:38:50.624Z,7.10
2022-10-18T06:41:19.359Z,7.10
2022-10-18T06:43:50.418Z,6.40
2022-10-18T06:46:17.888Z,6.00
2022-10-18T06:48:45.592Z,6.00
2022-10-18T06:51:13.093Z,7.20
2022-10-18T06:53:44.401Z,6.00
2022-10-18T06:56:20.863Z,6.00
2022-10-18T06:58:48.407Z,6.00
2022-10-18T07:01:17.547Z,6.00
2022-10-18T07:03:46.609Z,6.00
2022-10-18T07:06:16.531Z,6.10
2022-10-18T07:08:44.908Z,7.00
2022-10-18T07:11:20.639Z,6.60
2022-10-18T07:13:48.518Z,6.10
2022-10-18T07:16:18.908Z,6.20
2022-10-18T07:18:51.287Z,7.30
2022-10-18T07:21:22.202Z,6.60
2022-10-18T07:23:50.618Z,7.90
2022-10-18T07:26:21.047Z,6.20
2022-10-18T07:28:55.374Z,6.20
2022-10-18T07:31:23.718Z,6.20
2022-10-18T07:33:51.412Z,6.30
2022-10-18T07:36:19.232Z,6.30
2022-10-18T07:38:46.851Z,7.50
2022-10-18T07:41:14.696Z,6.50
2022-10-18T07:43:45.779Z,6.40
2022-10-18T07:46:14.176Z,8.20
2022-10-18T07:48:42.339Z,6.50
2022-10-18T07:51:10.318Z,6.50
2022-10-18T07:53:38.348Z,8.30
2022-10-18T07:56:09.784Z,6.60
2022-10-18T07:58:37.748Z,6.60
2022-10-18T08:01:06.611Z,6.70
2022-10-18T08:03:35.522Z,6.70
2022-10-18T08:06:04.120Z,6.80
2022-10-18T08:08:32.083Z,6.80
2022-10-18T08:11:04.670Z,6.90
2022-10-18T08:13:32.747Z,7.00
2022-10-18T08:16:08.726Z,7.10
2022-10-18T08:18:37.071Z,7.10
2022-10-18T08:21:06.639Z,8.70
2022-10-18T08:23:34.503Z,7.20
2022-10-18T08:26:03.783Z,9.00
2022-10-18T08:28:31.339Z,7.40
2022-10-18T08:31:03.766Z,8.60
2022-10-18T08:33:31.746Z,9.30
2022-10-18T08:36:01.156Z,7.60
2022-10-18T08:38:32.789Z,9.80
2022-10-18T08:41:38.407Z,8.60
2022-10-18T08:44:23.061Z,8.00
2022-10-18T08:46:53.185Z,8.20
2022-10-18T08:49:30.012Z,8.40
2022-10-18T08:51:58.802Z,8.50
2022-10-18T08:54:34.442Z,10.50
2022-10-18T08:57:04.613Z,8.70
2022-10-18T08:59:39.530Z,8.90
2022-10-18T09:02:19.962Z,9.20
2022-10-18T09:05:09.340Z,9.40
2022-10-18T09:07:39.936Z,9.40
2022-10-18T09:10:22.684Z,9.50
2022-10-18T09:13:19.213Z,9.60
2022-10-18T09:15:59.888Z,9.70
2022-10-18T09:19:05.591Z,9.80
2022-10-18T09:21:47.874Z,9.90
2022-10-18T09:24:37.441Z,9.90
2022-10-18T09:27:16.587Z,10.00
2022-10-18T09:30:05.307Z,10.10
2022-10-18T09:32:50.373Z,10.20
2022-10-18T09:35:25.302Z,10.30
2022-10-18T09:38:02.336Z,10.80
2022-10-18T09:40:33.033Z,10.40
2022-10-18T09:43:07.315Z,10.50
2022-10-18T09:45:45.726Z,11.40
2022-10-18T09:48:24.511Z,10.60
2022-10-18T09:51:00.779Z,10.60
2022-10-18T09:53:38.714Z,10.70
2022-10-18T09:56:06.366Z,10.70
2022-10-18T09:58:44.100Z,10.80
2022-10-18T10:01:15.480Z,10.90
2022-10-18T10:03:43.059Z,10.90
2022-10-18T10:06:14.795Z,10.90
2022-10-18T10:09:03.593Z,11.00
2022-10-18T10:11:40.416Z,11.00
2022-10-18T10:14:27.153Z,11.10
2022-10-18T10:17:03.284Z,11.10
2022-10-18T10:19:33.842Z,11.20
2022-10-18T10:22:09.222Z,11.30
2022-10-18T10:24:50.220Z,11.40
2022-10-18T10:27:32.629Z,11.40
2022-10-18T10:30:06.822Z,11.50
2022-10-18T10:32:49.898Z,11.50
2022-10-18T10:38:29.343Z,11.70
2022-10-18T10:41:00.162Z,11.70
2022-10-18T10:43:38.786Z,12.30
2022-10-18T10:46:20.992Z,12.20
2022-10-18T10:48:56.316Z,11.90
2022-10-18T10:51:36.420Z,12.00
2022-10-18T10:54:11.496Z,12.00
2022-10-18T10:56:55.336Z,12.00
2022-10-18T10:59:26.325Z,11.40
2022-10-18T11:02:21.352Z,12.30
2022-10-18T11:04:54.151Z,12.20
2022-10-18T11:07:43.260Z,12.30
2022-10-18T11:10:10.665Z,12.40
2022-10-18T11:12:42.856Z,12.50
2022-10-18T11:15:17.003Z,12.60
2022-10-18T11:20:25.195Z,12.70
2022-10-18T11:23:12.037Z,12.70
2022-10-18T11:25:39.493Z,12.80
2022-10-18T11:28:35.045Z,12.90
2022-10-18T11:31:27.490Z,12.90
2022-10-18T11:34:30.847Z,13.00
2022-10-18T11:37:30.088Z,13.10
2022-10-18T11:40:18.569Z,13.20
2022-10-18T11:42:58.962Z,13.20
2022-10-18T11:45:45.774Z,13.30
2022-10-18T11:48:39.832Z,13.40
2022-10-18T11:51:50.289Z,13.50
2022-10-18T11:54:49.415Z,13.60
2022-10-18T11:57:30.301Z,13.70
2022-10-18T12:00:21.003Z,13.80
2022-10-18T12:03:00.875Z,13.90
2022-10-18T12:05:30.182Z,13.90
2022-10-18T12:08:01.118Z,14.00
2022-10-18T12:10:52.753Z,14.10
2022-10-18T12:13:42.473Z,14.20
2022-10-18T12:16:11.135Z,14.30
2022-10-18T12:19:11.591Z,14.40
2022-10-18T12:21:40.230Z,14.30
2022-10-18T12:24:16.038Z,14.50
2022-10-18T12:26:43.839Z,14.60
2022-10-18T12:29:14.104Z,13.90
2022-10-18T12:31:58.683Z,14.70
2022-10-18T12:34:50.612Z,14.80
2022-10-18T12:37:27.467Z,14.90
2022-10-18T12:40:18.808Z,15.00
2022-10-18T12:42:51.388Z,15.00
2022-10-18T12:45:33.521Z,15.20
2022-10-18T12:48:04.782Z,15.20
2022-10-18T12:50:37.670Z,15.20
2022-10-18T12:53:19.192Z,15.40
2022-10-18T12:55:51.472Z,15.40
2022-10-18T12:58:31.091Z,15.40
2022-10-18T13:01:02.246Z,15.50
2022-10-18T13:03:55.612Z,15.60
2022-10-18T13:06:23.755Z,15.60
2022-10-18T13:09:11.073Z,15.70
2022-10-18T13:11:38.592Z,15.70
2022-10-18T13:14:27.030Z,15.50
2022-10-18T13:17:16.628Z,15.80
2022-10-18T13:20:25.957Z,15.90
2022-10-18T13:23:20.324Z,15.90
2022-10-18T13:25:59.679Z,16.00
2022-10-18T13:28:41.023Z,16.00
2022-10-18T13:31:45.344Z,16.10
2022-10-18T13:34:22.669Z,16.10
2022-10-18T13:37:09.869Z,16.10
2022-10-18T13:39:39.718Z,16.20
2022-10-18T13:42:15.896Z,16.20
2022-10-18T13:44:44.694Z,16.30
2022-10-18T13:47:17.597Z,16.30
2022-10-18T13:49:59.593Z,16.40
2022-10-18T13:52:48.353Z,16.40
2022-10-18T13:55:55.824Z,16.50
2022-10-18T13:58:32.483Z,16.60
2022-10-18T14:01:14.995Z,16.80
2022-10-18T14:04:20.816Z,17.00
2022-10-18T14:06:50.330Z,17.30
2022-10-18T14:09:43.583Z,17.50
2022-10-18T14:12:37.953Z,17.60
2022-10-18T14:15:23.918Z,17.80
2022-10-18T14:18:01.662Z,17.90
2022-10-18T14:20:49.394Z,17.90
2022-10-18T14:23:37.014Z,18.00
2022-10-18T14:26:19.670Z,18.00
2022-10-18T14:29:03.902Z,18.00
2022-10-18T14:31:32.321Z,18.00
2022-10-18T14:34:00.967Z,18.00
2022-10-18T14:36:39.663Z,18.00
2022-10-18T14:39:21.068Z,17.90
2022-10-18T14:41:56.741Z,17.80
2022-10-18T14:44:30.447Z,17.70
2022-10-18T14:47:03.851Z,17.50
2022-10-18T14:49:31.738Z,17.40
2022-10-18T14:52:00.567Z,17.20
2022-10-18T14:54:33.607Z,17.10
2022-10-18T14:57:03.369Z,16.90
2022-10-18T14:59:46.732Z,16.80
2022-10-18T15:02:21.783Z,16.70
2022-10-18T15:05:07.012Z,16.60
2022-10-18T15:07:35.670Z,16.50
2022-10-18T15:10:05.337Z,16.40
2022-10-18T15:12:37.034Z,16.30
2022-10-18T15:15:27.744Z,16.20
2022-10-18T15:17:58.094Z,16.10
2022-10-18T15:20:31.137Z,16.00
2022-10-18T15:23:25.469Z,15.80
2022-10-18T15:26:01.151Z,15.70
2022-10-18T15:28:37.979Z,15.60
2022-10-18T15:31:06.716Z,15.60
2022-10-18T15:33:34.782Z,15.40
2022-10-18T15:36:11.198Z,15.40
2022-10-18T15:38:39.034Z,15.30
2022-10-18T15:41:43.828Z,15.30
2022-10-18T15:44:24.346Z,15.20
2022-10-18T15:46:55.153Z,15.20
2022-10-18T15:49:47.176Z,15.10
2022-10-18T15:52:38.446Z,15.10
2022-10-18T15:55:30.410Z,15.00
2022-10-18T15:58:12.600Z,14.90
2022-10-18T16:00:42.014Z,14.90
2022-10-18T16:03:10.125Z,14.80
2022-10-18T16:05:38.937Z,14.80
2022-10-18T16:08:06.663Z,14.80
2022-10-18T16:10:34.194Z,14.70
2022-10-18T16:13:01.929Z,14.50
2022-10-18T16:15:29.457Z,14.60
2022-10-18T16:18:00.164Z,14.60
2022-10-18T16:20:28.042Z,14.50
2022-10-18T16:22:55.752Z,14.50
2022-10-18T16:25:23.286Z,14.40
2022-10-18T16:27:50.723Z,14.30
2022-10-18T16:30:21.098Z,14.20
2022-10-18T16:32:49.047Z,14.20
2022-10-18T16:35:16.567Z,14.10
2022-10-18T16:37:44.057Z,14.00
2022-10-18T16:40:24.253Z,13.90
2022-10-18T16:42:54.638Z,13.90
2022-10-18T16:45:27.462Z,13.80
2022-10-18T16:47:58.747Z,13.70
2022-10-18T16:50:26.379Z,13.50
2022-10-18T16:52:54.116Z,13.60
2022-10-18T16:55:26.719Z,13.40
2022-10-18T16:57:58.879Z,13.40
2022-10-18T17:00:47.113Z,13.30
2022-10-18T17:09:40.213Z,13.00
2022-10-18T17:12:47.678Z,12.80
2022-10-18T17:15:25.308Z,12.60
2022-10-18T17:17:56.239Z,12.60
2022-10-18T17:20:26.345Z,12.50
2022-10-18T17:22:54.527Z,12.40
2022-10-18T17:25:24.252Z,12.40
2022-10-18T17:28:03.403Z,12.30
2022-10-18T17:30:35.757Z,12.20
2022-10-18T17:33:03.713Z,12.10
2022-10-18T17:35:33.971Z,12.10
2022-10-18T17:38:02.017Z,12.10
2022-10-18T17:40:33.361Z,12.10
2022-10-18T17:43:03.272Z,11.90
2022-10-18T17:45:44.887Z,11.90
2022-10-18T17:48:12.478Z,11.40
2022-10-18T17:50:43.194Z,11.70
2022-10-18T17:53:25.298Z,11.60
2022-10-18T17:56:12.011Z,10.20
2022-10-18T17:58:54.313Z,11.50
2022-10-18T18:01:23.393Z,11.40
2022-10-18T18:03:59.679Z,10.10
2022-10-18T18:06:35.879Z,11.40
2022-10-18T18:09:27.256Z,11.30
2022-10-18T18:11:55.580Z,11.30
2022-10-18T18:14:25.944Z,11.20
2022-10-18T18:16:53.870Z,11.10
2022-10-18T18:19:23.885Z,11.10
2022-10-18T18:21:55.128Z,11.10
2022-10-18T18:24:24.785Z,11.00
2022-10-18T18:26:53.816Z,11.00
2022-10-18T18:29:22.923Z,11.80
2022-10-18T18:31:50.660Z,11.20
2022-10-18T18:34:19.792Z,11.30
2022-10-18T18:36:47.892Z,12.80
2022-10-18T18:39:22.467Z,11.30
2022-10-18T18:41:52.918Z,11.50
2022-10-18T18:44:21.424Z,11.40
2022-10-18T18:46:49.523Z,11.50
2022-10-18T18:49:17.148Z,11.50
2022-10-18T18:51:44.535Z,11.40
2022-10-18T18:54:18.244Z,11.40
2022-10-18T18:56:48.326Z,11.30
2022-10-18T18:59:16.529Z,11.20
2022-10-18T19:01:44.072Z,9.50
2022-10-18T19:04:11.901Z,11.10
2022-10-18T19:06:42.636Z,11.00
2022-10-18T19:09:18.946Z,10.90
2022-10-18T19:11:48.311Z,11.30
2022-10-18T19:14:16.090Z,10.80
2022-10-18T19:17:01.573Z,11.00
2022-10-18T19:19:30.763Z,10.70
2022-10-18T19:22:00.847Z,10.20
2022-10-18T19:24:30.495Z,10.70
2022-10-18T19:27:03.835Z,11.40
2022-10-18T19:29:36.656Z,10.60
2022-10-18T19:32:12.976Z,10.70
2022-10-18T19:34:43.943Z,10.60
2022-10-18T19:37:15.235Z,11.50
2022-10-18T19:39:42.761Z,10.70
2022-10-18T19:42:15.681Z,10.70
2022-10-18T19:44:46.274Z,10.70
2022-10-18T19:47:14.419Z,10.70
2022-10-18T19:49:43.024Z,10.80
2022-10-18T19:52:12.355Z,11.10
2022-10-18T19:54:40.019Z,8.90
2022-10-18T19:57:07.621Z,11.20
2022-10-18T19:59:36.026Z,10.90
2022-10-18T20:02:06.426Z,10.90
2022-10-18T20:04:35.075Z,11.20
2022-10-18T20:07:02.874Z,11.00
2022-10-18T20:09:30.651Z,11.10
2022-10-18T20:11:58.194Z,11.10
2022-10-18T20:14:25.854Z,11.10
2022-10-18T20:16:53.338Z,11.20
2022-10-18T20:19:20.811Z,11.20
2022-10-18T20:21:48.307Z,11.20
2022-10-18T20:24:15.894Z,11.40
2022-10-18T20:26:43.791Z,11.30
2022-10-18T20:29:14.748Z,11.90
2022-10-18T20:31:45.040Z,11.50
2022-10-18T20:34:12.684Z,11.30
2022-10-18T20:36:40.492Z,11.90
2022-10-18T20:39:09.613Z,12.00
2022-10-18T20:41:40.951Z,11.30
2022-10-18T20:44:13.389Z,11.30
2022-10-18T20:46:41.221Z,11.30
2022-10-18T20:49:10.493Z,11.30
2022-10-18T20:51:38.028Z,11.30
2022-10-18T20:54:06.692Z,11.80
2022-10-18T20:56:36.537Z,11.30
2022-10-18T20:59:06.187Z,11.30
2022-10-18T21:01:34.941Z,11.30
2022-10-18T21:04:06.751Z,11.30
2022-10-18T21:06:44.319Z,11.30
2022-10-18T21:09:17.441Z,11.60
2022-10-18T21:11:47.757Z,12.00
2022-10-18T21:14:17.653Z,11.40
2022-10-18T21:16:46.128Z,11.70
2022-10-18T21:19:18.622Z,11.30
2022-10-18T21:21:47.734Z,11.40
2022-10-18T21:24:15.344Z,11.40
2022-10-18T21:26:43.351Z,11.40
2022-10-18T21:29:11.931Z,11.50
2022-10-18T21:31:41.693Z,11.40
2022-10-18T21:34:15.328Z,11.50
2022-10-18T21:36:44.311Z,11.50
2022-10-18T21:39:17.745Z,11.50
2022-10-18T21:41:45.855Z,11.60
2022-10-18T21:44:14.010Z,11.60
2022-10-18T21:46:43.049Z,12.10
2022-10-18T21:49:11.160Z,11.60
2022-10-18T21:51:38.734Z,11.60
2022-10-18T21:54:09.879Z,11.60
2022-10-18T21:56:37.648Z,12.50
2022-10-18T21:59:05.489Z,12.20
2022-10-18T22:01:35.739Z,11.60
2022-10-18T22:04:06.488Z,11.60
2022-10-18T22:09:10.227Z,11.60
2022-10-18T22:11:41.417Z,11.70
2022-10-18T22:14:09.307Z,11.60
2022-10-18T22:16:37.122Z,11.60
2022-10-18T22:19:06.242Z,11.50
2022-10-18T22:21:33.866Z,11.50
2022-10-18T22:24:05.385Z,11.50
2022-10-18T22:26:38.942Z,11.50
2022-10-18T22:29:12.443Z,11.40
2022-10-18T22:31:43.880Z,11.40
2022-10-18T22:34:14.631Z,11.40
2022-10-18T22:36:42.672Z,11.80
2022-10-18T22:39:13.059Z,11.40
2022-10-18T22:41:41.697Z,11.30
2022-10-18T22:44:12.226Z,11.30
2022-10-18T22:46:40.494Z,11.30
2022-10-18T22:49:08.459Z,11.40
2022-10-18T22:54:08.697Z,11.20
2022-10-18T22:56:36.236Z,11.20
2022-10-18T22:59:03.692Z,11.20
2022-10-18T23:01:31.359Z,11.20
2022-10-18T23:04:00.497Z,11.20
2022-10-18T23:06:30.250Z,11.10
2022-10-18T23:09:00.329Z,11.10
2022-10-18T23:11:28.858Z,11.60
2022-10-18T23:13:56.459Z,11.10
2022-10-18T23:16:24.310Z,11.10
2022-10-18T23:18:54.102Z,11.10
2022-10-18T23:21:24.299Z,11.10
2022-10-18T23:23:53.146Z,12.10
2022-10-18T23:26:23.290Z,11.00
2022-10-18T23:28:51.955Z,11.10
2022-10-18T23:31:22.423Z,11.10
2022-10-18T23:33:52.667Z,11.10
2022-10-18T23:36:20.532Z,11.10
2022-10-18T23:38:47.994Z,11.10
2022-10-18T23:41:16.581Z,11.20
2022-10-18T23:43:46.509Z,11.10
2022-10-18T23:46:14.927Z,11.20
2022-10-18T23:48:42.601Z,11.20
2022-10-18T23:51:10.521Z,11.20
2022-10-18T23:53:38.512Z,11.20
2022-10-18T23:56:09.597Z,11.20
2022-10-18T23:58:37.699Z,11.20
